sensor_id;sensor_type;location;lat;lon;timestamp;pressure;altitude;pressure_sealevel;temperature;humidity
37390;BME280;39679;49.000;8.390;2022-09-14T00:04:38;99270.97;;;23.45;52.53
37390;BME280;39679;49.000;8.390;2022-09-14T00:09:38;99270.97;;;23.45;52.76
37390;BME280;39679;49.000;8.390;2022-09-14T00:14:38;99252.34;;;23.43;52.62
37390;BME280;39679;49.000;8.390;2022-09-14T00:19:39;99232.78;;;23.43;52.44
37390;BME280;39679;49.000;8.390;2022-09-14T00:24:39;99242.63;;;23.42;52.62
37390;BME280;39679;49.000;8.390;2022-09-14T00:29:39;99231.06;;;23.42;52.31
37390;BME280;39679;49.000;8.390;2022-09-14T00:34:39;99222.19;;;23.41;52.75
37390;BME280;39679;49.000;8.390;2022-09-14T00:39:39;99226.66;;;23.41;52.17
37390;BME280;39679;49.000;8.390;2022-09-14T00:49:40;99221.31;;;23.41;52.22
37390;BME280;39679;49.000;8.390;2022-09-14T00:54:42;99216.94;;;23.40;52.28
37390;BME280;39679;49.000;8.390;2022-09-14T00:59:45;99212.44;;;23.40;52.17
37390;BME280;39679;49.000;8.390;2022-09-14T01:04:45;99223.03;;;23.42;52.12
37390;BME280;39679;49.000;8.390;2022-09-14T01:15:06;99257.59;;;23.45;52.36
37390;BME280;39679;49.000;8.390;2022-09-14T01:20:11;99283.50;;;23.44;52.60
37390;BME280;39679;49.000;8.390;2022-09-14T01:30:20;99310.91;;;23.48;52.38
37390;BME280;39679;49.000;8.390;2022-09-14T01:35:26;99361.72;;;23.48;52.86
37390;BME280;39679;49.000;8.390;2022-09-14T01:40:38;99336.69;;;23.49;52.63
37390;BME280;39679;49.000;8.390;2022-09-14T01:45:40;99320.66;;;23.49;52.52
37390;BME280;39679;49.000;8.390;2022-09-14T01:50:46;99329.53;;;23.49;52.39
37390;BME280;39679;49.000;8.390;2022-09-14T01:55:54;99290.28;;;23.50;52.48
37390;BME280;39679;49.000;8.390;2022-09-14T02:00:55;99292.09;;;23.49;52.96
37390;BME280;39679;49.000;8.390;2022-09-14T02:10:58;99266.38;;;23.47;52.93
37390;BME280;39679;49.000;8.390;2022-09-14T02:15:58;99275.38;;;23.46;52.86
37390;BME280;39679;49.000;8.390;2022-09-14T02:21:00;99281.50;;;23.48;52.65
37390;BME280;39679;49.000;8.390;2022-09-14T02:26:03;99277.78;;;23.50;53.25
37390;BME280;39679;49.000;8.390;2022-09-14T02:31:16;99201.94;;;23.51;53.16
37390;BME280;39679;49.000;8.390;2022-09-14T02:56:23;99187.25;;;23.58;53.63
37390;BME280;39679;49.000;8.390;2022-09-14T03:01:23;99189.81;;;23.60;53.89
37390;BME280;39679;49.000;8.390;2022-09-14T03:06:24;99197.84;;;23.60;53.73
37390;BME280;39679;49.000;8.390;2022-09-14T03:11:24;99165.84;;;23.58;53.86
37390;BME280;39679;49.000;8.390;2022-09-14T03:16:24;99132.72;;;23.61;54.28
37390;BME280;39679;49.000;8.390;2022-09-14T03:21:24;99140.72;;;23.61;54.11
37390;BME280;39679;49.000;8.390;2022-09-14T03:26:25;99141.50;;;23.63;53.95
37390;BME280;39679;49.000;8.390;2022-09-14T03:31:25;99118.38;;;23.62;54.10
37390;BME280;39679;49.000;8.390;2022-09-14T03:36:26;99128.13;;;23.63;54.12
37390;BME280;39679;49.000;8.390;2022-09-14T03:41:27;99136.97;;;23.63;54.26
37390;BME280;39679;49.000;8.390;2022-09-14T03:46:27;99187.81;;;23.63;54.46
37390;BME280;39679;49.000;8.390;2022-09-14T03:51:27;99191.34;;;23.64;55.54
37390;BME280;39679;49.000;8.390;2022-09-14T03:56:27;99173.59;;;23.63;55.21
37390;BME280;39679;49.000;8.390;2022-09-14T04:01:27;99151.34;;;23.62;54.69
37390;BME280;39679;49.000;8.390;2022-09-14T04:06:28;99192.22;;;23.64;55.06
37390;BME280;39679;49.000;8.390;2022-09-14T04:11:28;99160.97;;;23.65;55.11
37390;BME280;39679;49.000;8.390;2022-09-14T04:16:28;99157.34;;;23.66;54.88
37390;BME280;39679;49.000;8.390;2022-09-14T04:21:29;99152.00;;;23.66;54.98
37390;BME280;39679;49.000;8.390;2022-09-14T04:26:29;99157.22;;;23.67;54.47
37390;BME280;39679;49.000;8.390;2022-09-14T04:31:30;99168.81;;;23.68;54.49
37390;BME280;39679;49.000;8.390;2022-09-14T04:36:30;99167.00;;;23.68;54.80
37390;BME280;39679;49.000;8.390;2022-09-14T04:41:30;99156.28;;;23.68;54.63
37390;BME280;39679;49.000;8.390;2022-09-14T04:46:31;99172.22;;;23.70;54.78
37390;BME280;39679;49.000;8.390;2022-09-14T04:51:32;99164.22;;;23.70;54.74
37390;BME280;39679;49.000;8.390;2022-09-14T04:56:33;99173.09;;;23.70;54.43
37390;BME280;39679;49.000;8.390;2022-09-14T05:01:35;99179.31;;;23.71;55.04
37390;BME280;39679;49.000;8.390;2022-09-14T05:06:36;99180.25;;;23.70;55.24
37390;BME280;39679;49.000;8.390;2022-09-14T05:11:37;99180.25;;;23.70;55.00
37390;BME280;39679;49.000;8.390;2022-09-14T05:16:38;99171.38;;;23.69;55.58
37390;BME280;39679;49.000;8.390;2022-09-14T05:21:38;99180.25;;;23.70;55.40
37390;BME280;39679;49.000;8.390;2022-09-14T05:26:39;99187.41;;;23.69;55.90
37390;BME280;39679;49.000;8.390;2022-09-14T05:31:39;99169.66;;;23.68;56.08
37390;BME280;39679;49.000;8.390;2022-09-14T05:36:39;99140.25;;;23.68;56.18
37390;BME280;39679;49.000;8.390;2022-09-14T05:41:40;99147.50;;;23.66;56.85
37390;BME280;39679;49.000;8.390;2022-09-14T05:46:40;99160.88;;;23.66;56.38
37390;BME280;39679;49.000;8.390;2022-09-14T05:51:40;99173.28;;;23.67;56.10
37390;BME280;39679;49.000;8.390;2022-09-14T05:56:40;99166.13;;;23.68;55.91
37390;BME280;39679;49.000;8.390;2022-09-14T06:01:40;99161.63;;;23.68;56.19
37390;BME280;39679;49.000;8.390;2022-09-14T06:06:41;99164.31;;;23.68;56.18
37390;BME280;39679;49.000;8.390;2022-09-14T06:11:41;99173.22;;;23.69;56.00
37390;BME280;39679;49.000;8.390;2022-09-14T06:16:41;99173.22;;;23.69;56.63
37390;BME280;39679;49.000;8.390;2022-09-14T06:21:41;99178.63;;;23.67;56.69
37390;BME280;39679;49.000;8.390;2022-09-14T06:26:41;99181.31;;;23.67;56.57
37390;BME280;39679;49.000;8.390;2022-09-14T06:31:42;99176.81;;;23.68;56.43
37390;BME280;39679;49.000;8.390;2022-09-14T06:36:42;99163.56;;;23.66;56.76
37390;BME280;39679;49.000;8.390;2022-09-14T06:41:42;99164.50;;;23.65;56.91
37390;BME280;39679;49.000;8.390;2022-09-14T06:46:42;99161.94;;;23.64;57.01
37390;BME280;39679;49.000;8.390;2022-09-14T06:51:43;99153.91;;;23.64;56.80
37390;BME280;39679;49.000;8.390;2022-09-14T06:56:44;99160.13;;;23.64;56.98
37390;BME280;39679;49.000;8.390;2022-09-14T07:01:45;99168.13;;;23.64;56.92
37390;BME280;39679;49.000;8.390;2022-09-14T07:06:46;99148.44;;;23.65;56.93
37390;BME280;39679;49.000;8.390;2022-09-14T07:11:47;99151.13;;;23.65;56.82
37390;BME280;39679;49.000;8.390;2022-09-14T07:16:47;99160.97;;;23.65;57.10
37390;BME280;39679;49.000;8.390;2022-09-14T07:21:47;99160.13;;;23.64;57.18
37390;BME280;39679;49.000;8.390;2022-09-14T07:26:47;99167.16;;;23.65;57.17
37390;BME280;39679;49.000;8.390;2022-09-14T07:31:48;99170.81;;;23.64;57.35
37390;BME280;39679;49.000;8.390;2022-09-14T07:36:49;99166.41;;;23.63;57.63
37390;BME280;39679;49.000;8.390;2022-09-14T07:41:49;99169.94;;;23.64;57.31
37390;BME280;39679;49.000;8.390;2022-09-14T07:46:49;99186.00;;;23.64;57.34
37390;BME280;39679;49.000;8.390;2022-09-14T07:51:51;99187.72;;;23.65;58.09
37390;BME280;39679;49.000;8.390;2022-09-14T07:56:51;99195.66;;;23.66;57.82
37390;BME280;39679;49.000;8.390;2022-09-14T08:01:51;99213.59;;;23.64;58.28
37390;BME280;39679;49.000;8.390;2022-09-14T08:06:51;99208.25;;;23.64;58.37
37390;BME280;39679;49.000;8.390;2022-09-14T08:11:52;99227.91;;;23.63;58.38
37390;BME280;39679;49.000;8.390;2022-09-14T08:16:52;99222.50;;;23.65;58.92
37390;BME280;39679;49.000;8.390;2022-09-14T08:21:52;99219.06;;;23.63;58.96
37390;BME280;39679;49.000;8.390;2022-09-14T08:26:52;99232.34;;;23.64;59.38
37390;BME280;39679;49.000;8.390;2022-09-14T08:31:53;99230.53;;;23.65;59.36
37390;BME280;39679;49.000;8.390;2022-09-14T08:36:53;99226.13;;;23.64;59.65
37390;BME280;39679;49.000;8.390;2022-09-14T08:41:54;99209.13;;;23.65;59.46
37390;BME280;39679;49.000;8.390;2022-09-14T08:51:57;99241.03;;;23.68;60.65
37390;BME280;39679;49.000;8.390;2022-09-14T08:57:00;99225.84;;;23.68;60.78
37390;BME280;39679;49.000;8.390;2022-09-14T09:17:37;99227.38;;;23.72;62.39
37390;BME280;39679;49.000;8.390;2022-09-14T09:22:42;99222.00;;;23.72;62.66
37390;BME280;39679;49.000;8.390;2022-09-14T09:27:42;99212.34;;;23.70;62.95
37390;BME280;39679;49.000;8.390;2022-09-14T09:32:42;99189.16;;;23.70;61.66
37390;BME280;39679;49.000;8.390;2022-09-14T09:37:42;99196.22;;;23.71;61.41
37390;BME280;39679;49.000;8.390;2022-09-14T09:48:07;99179.00;;;23.75;62.76
37390;BME280;39679;49.000;8.390;2022-09-14T09:53:07;99168.22;;;23.77;63.41
37390;BME280;39679;49.000;8.390;2022-09-14T10:03:27;99152.94;;;23.79;62.81
37390;BME280;39679;49.000;8.390;2022-09-14T10:08:28;99139.34;;;23.82;62.54
37390;BME280;39679;49.000;8.390;2022-09-14T10:18:28;99124.06;;;23.84;62.80
37390;BME280;39679;49.000;8.390;2022-09-14T10:23:30;99113.28;;;23.86;62.65
37390;BME280;39679;49.000;8.390;2022-09-14T10:28:31;99088.22;;;23.87;62.57
37390;BME280;39679;49.000;8.390;2022-09-14T10:33:32;99071.22;;;23.88;62.82
37390;BME280;39679;49.000;8.390;2022-09-14T10:38:49;99055.94;;;23.90;62.34
37390;BME280;39679;49.000;8.390;2022-09-14T10:44:37;99044.25;;;23.91;62.47
37390;BME280;39679;49.000;8.390;2022-09-14T10:49:13;99042.34;;;23.93;62.78
37390;BME280;39679;49.000;8.390;2022-09-14T10:59:25;99039.47;;;23.96;62.93
37390;BME280;39679;49.000;8.390;2022-09-14T11:24:55;99024.44;;;24.07;62.95
37390;BME280;39679;49.000;8.390;2022-09-14T11:29:58;99017.28;;;24.08;62.39
37390;BME280;39679;49.000;8.390;2022-09-14T11:35:03;99022.41;;;24.11;62.88
37390;BME280;39679;49.000;8.390;2022-09-14T11:40:21;99011.50;;;24.14;61.98
37390;BME280;39679;49.000;8.390;2022-09-14T11:50:26;99005.00;;;24.18;61.37
37390;BME280;39679;49.000;8.390;2022-09-14T11:55:27;99006.69;;;24.19;60.90
37390;BME280;39679;49.000;8.390;2022-09-14T12:05:29;99049.22;;;24.23;60.43
37390;BME280;39679;49.000;8.390;2022-09-14T12:10:29;99047.41;;;24.24;60.01
37390;BME280;39679;49.000;8.390;2022-09-14T12:25:32;99085.34;;;24.30;61.44
37390;BME280;39679;49.000;8.390;2022-09-14T12:35:43;99171.16;;;24.15;64.00
37390;BME280;39679;49.000;8.390;2022-09-14T12:40:44;99184.75;;;24.12;63.25
37390;BME280;39679;49.000;8.390;2022-09-14T12:45:50;99241.03;;;24.10;61.45
37390;BME280;39679;49.000;8.390;2022-09-14T12:50:59;99215.22;;;24.09;60.59
37390;BME280;39679;49.000;8.390;2022-09-14T12:56:01;99221.53;;;24.08;60.38
37390;BME280;39679;49.000;8.390;2022-09-14T13:01:12;99212.56;;;24.09;60.63
37390;BME280;39679;49.000;8.390;2022-09-14T13:06:14;99197.75;;;24.04;61.42
37390;BME280;39679;49.000;8.390;2022-09-14T13:11:29;99195.44;;;23.98;61.74
37390;BME280;39679;49.000;8.390;2022-09-14T13:16:33;99183.28;;;23.92;61.62
37390;BME280;39679;49.000;8.390;2022-09-14T13:21:34;99180.06;;;23.87;61.96
37390;BME280;39679;49.000;8.390;2022-09-14T13:26:34;99182.16;;;23.82;62.24
37390;BME280;39679;49.000;8.390;2022-09-14T13:31:36;99191.16;;;23.81;63.34
37390;BME280;39679;49.000;8.390;2022-09-14T13:36:40;99184.06;;;23.80;63.70
37390;BME280;39679;49.000;8.390;2022-09-14T13:41:41;99178.72;;;23.80;63.66
37390;BME280;39679;49.000;8.390;2022-09-14T13:46:42;99180.53;;;23.80;64.54
37390;BME280;39679;49.000;8.390;2022-09-14T13:51:42;99196.69;;;23.78;63.99
37390;BME280;39679;49.000;8.390;2022-09-14T13:56:42;99186.09;;;23.77;64.59
37390;BME280;39679;49.000;8.390;2022-09-14T14:02:09;99180.63;;;23.78;64.66
37390;BME280;39679;49.000;8.390;2022-09-14T14:07:04;99167.91;;;23.82;64.08
37390;BME280;39679;49.000;8.390;2022-09-14T14:12:05;99184.66;;;23.85;63.55
37390;BME280;39679;49.000;8.390;2022-09-14T14:17:51;99178.03;;;23.91;62.91
37390;BME280;39679;49.000;8.390;2022-09-14T14:32:27;99141.84;;;23.85;62.93
37390;BME280;39679;49.000;8.390;2022-09-14T14:37:27;99136.56;;;23.98;62.82
37390;BME280;39679;49.000;8.390;2022-09-14T14:42:28;99117.25;;;24.07;62.29
37390;BME280;39679;49.000;8.390;2022-09-14T14:47:28;99083.03;;;23.98;63.27
37390;BME280;39679;49.000;8.390;2022-09-14T14:52:28;99048.81;;;23.62;64.24
37390;BME280;39679;49.000;8.390;2022-09-14T14:57:29;99022.69;;;23.39;65.18
37390;BME280;39679;49.000;8.390;2022-09-14T15:02:29;99007.91;;;23.19;65.33
37390;BME280;39679;49.000;8.390;2022-09-14T15:07:29;99032.34;;;23.13;65.63
37390;BME280;39679;49.000;8.390;2022-09-14T15:12:29;99028.81;;;23.13;66.11
37390;BME280;39679;49.000;8.390;2022-09-14T15:17:30;99013.44;;;23.16;65.57
37390;BME280;39679;49.000;8.390;2022-09-14T15:22:30;98998.47;;;23.14;65.33
37390;BME280;39679;49.000;8.390;2022-09-14T15:27:30;99000.66;;;23.07;65.79
37390;BME280;39679;49.000;8.390;2022-09-14T15:32:30;98985.69;;;23.05;65.75
37390;BME280;39679;49.000;8.390;2022-09-14T15:37:31;98979.69;;;23.01;66.00
37390;BME280;39679;49.000;8.390;2022-09-14T15:42:31;98975.84;;;23.19;65.64
37390;BME280;39679;49.000;8.390;2022-09-14T15:47:31;98965.53;;;23.13;66.54
37390;BME280;39679;49.000;8.390;2022-09-14T15:52:35;98967.81;;;23.19;65.28
37390;BME280;39679;49.000;8.390;2022-09-14T15:57:36;98963.50;;;23.17;65.16
37390;BME280;39679;49.000;8.390;2022-09-14T16:02:36;98969.22;;;23.25;65.25
37390;BME280;39679;49.000;8.390;2022-09-14T16:07:36;98977.94;;;23.28;65.06
37390;BME280;39679;49.000;8.390;2022-09-14T16:12:37;98987.94;;;23.25;65.43
37390;BME280;39679;49.000;8.390;2022-09-14T16:17:37;99002.38;;;23.22;65.61
37390;BME280;39679;49.000;8.390;2022-09-14T16:22:37;99002.38;;;23.22;64.91
37390;BME280;39679;49.000;8.390;2022-09-14T16:27:37;98992.84;;;23.18;65.05
37390;BME280;39679;49.000;8.390;2022-09-14T16:32:37;99007.91;;;23.19;64.19
37390;BME280;39679;49.000;8.390;2022-09-14T16:37:38;99027.59;;;23.18;64.13
37390;BME280;39679;49.000;8.390;2022-09-14T16:42:38;99013.63;;;23.13;63.80
37390;BME280;39679;49.000;8.390;2022-09-14T16:47:38;99026.50;;;23.21;64.17
37390;BME280;39679;49.000;8.390;2022-09-14T16:52:38;99032.44;;;23.26;63.39
37390;BME280;39679;49.000;8.390;2022-09-14T16:57:38;99027.63;;;23.31;63.24
37390;BME280;39679;49.000;8.390;2022-09-14T17:02:39;99040.00;;;23.33;63.30
37390;BME280;39679;49.000;8.390;2022-09-14T17:07:39;99040.84;;;23.34;63.10
37390;BME280;39679;49.000;8.390;2022-09-14T17:12:39;99036.38;;;23.34;63.11
37390;BME280;39679;49.000;8.390;2022-09-14T17:17:39;99041.53;;;23.37;62.84
37390;BME280;39679;49.000;8.390;2022-09-14T17:22:39;99046.69;;;23.40;62.68
37390;BME280;39679;49.000;8.390;2022-09-14T17:27:40;99047.72;;;23.38;62.57
37390;BME280;39679;49.000;8.390;2022-09-14T17:32:40;99050.41;;;23.38;62.54
37390;BME280;39679;49.000;8.390;2022-09-14T17:37:40;99055.09;;;23.34;64.69
37390;BME280;39679;49.000;8.390;2022-09-14T17:42:40;99040.84;;;23.20;62.95
37390;BME280;39679;49.000;8.390;2022-09-14T17:47:40;99028.53;;;23.17;62.94
37390;BME280;39679;49.000;8.390;2022-09-14T17:52:41;99032.06;;;23.18;63.24
37390;BME280;39679;49.000;8.390;2022-09-14T17:57:41;99037.19;;;23.21;63.11
37390;BME280;39679;49.000;8.390;2022-09-14T18:02:41;99030.16;;;23.20;63.18
37390;BME280;39679;49.000;8.390;2022-09-14T18:07:41;99042.38;;;23.24;63.34
37390;BME280;39679;49.000;8.390;2022-09-14T18:12:42;99034.13;;;23.27;62.96
37390;BME280;39679;49.000;8.390;2022-09-14T18:17:43;99041.50;;;23.23;63.60
37390;BME280;39679;49.000;8.390;2022-09-14T18:22:43;99060.09;;;23.25;63.25
37390;BME280;39679;49.000;8.390;2022-09-14T18:27:44;99071.66;;;23.25;63.15
37390;BME280;39679;49.000;8.390;2022-09-14T18:32:44;99074.84;;;23.32;62.66
37390;BME280;39679;49.000;8.390;2022-09-14T18:37:44;99078.81;;;23.25;62.70
37390;BME280;39679;49.000;8.390;2022-09-14T18:42:44;99073.78;;;23.20;62.65
37390;BME280;39679;49.000;8.390;2022-09-14T18:47:44;99077.41;;;23.19;62.73
37390;BME280;39679;49.000;8.390;2022-09-14T18:52:44;99072.16;;;23.18;62.96
37390;BME280;39679;49.000;8.390;2022-09-14T18:57:45;99074.72;;;23.19;62.56
37390;BME280;39679;49.000;8.390;2022-09-14T19:02:49;99071.88;;;23.22;62.68
37390;BME280;39679;49.000;8.390;2022-09-14T19:07:50;99067.69;;;23.18;62.97
37390;BME280;39679;49.000;8.390;2022-09-14T19:12:50;99058.88;;;23.16;62.65
37390;BME280;39679;49.000;8.390;2022-09-14T19:17:50;99070.53;;;23.15;62.85
37390;BME280;39679;49.000;8.390;2022-09-14T19:22:50;99078.81;;;23.11;62.75
37390;BME280;39679;49.000;8.390;2022-09-14T19:27:51;99066.31;;;23.11;62.74
37390;BME280;39679;49.000;8.390;2022-09-14T19:32:51;99070.53;;;23.15;62.98
37390;BME280;39679;49.000;8.390;2022-09-14T19:37:51;99079.13;;;23.20;62.43
37390;BME280;39679;49.000;8.390;2022-09-14T19:42:51;99098.41;;;23.25;62.44
37390;BME280;39679;49.000;8.390;2022-09-14T19:47:51;99107.00;;;23.30;63.00
37390;BME280;39679;49.000;8.390;2022-09-14T19:52:51;99104.25;;;23.32;62.62
37390;BME280;39679;49.000;8.390;2022-09-14T19:57:52;99098.81;;;23.33;62.65
37390;BME280;39679;49.000;8.390;2022-09-14T20:02:52;99102.25;;;23.35;62.53
37390;BME280;39679;49.000;8.390;2022-09-14T20:07:52;99099.47;;;23.37;62.42
37390;BME280;39679;49.000;8.390;2022-09-14T20:12:52;99106.53;;;23.38;62.31
37390;BME280;39679;49.000;8.390;2022-09-14T20:17:53;99111.78;;;23.39;62.42
37390;BME280;39679;49.000;8.390;2022-09-14T20:22:53;99110.00;;;23.40;62.50
37390;BME280;39679;49.000;8.390;2022-09-14T20:27:53;99114.28;;;23.42;62.47
37390;BME280;39679;49.000;8.390;2022-09-14T20:32:53;99108.94;;;23.42;61.78
37390;BME280;39679;49.000;8.390;2022-09-14T20:37:54;99125.75;;;23.44;61.82
37390;BME280;39679;49.000;8.390;2022-09-14T20:42:54;99135.47;;;23.45;62.26
37390;BME280;39679;49.000;8.390;2022-09-14T20:47:54;99145.22;;;23.46;62.01
37390;BME280;39679;49.000;8.390;2022-09-14T20:52:54;99127.44;;;23.45;62.27
37390;BME280;39679;49.000;8.390;2022-09-14T20:57:54;99131.00;;;23.46;62.59
37390;BME280;39679;49.000;8.390;2022-09-14T21:02:55;99130.88;;;23.47;62.32
37390;BME280;39679;49.000;8.390;2022-09-14T21:07:55;99136.72;;;23.54;62.03
37390;BME280;39679;49.000;8.390;2022-09-14T21:12:57;99127.44;;;23.59;61.83
37390;BME280;39679;49.000;8.390;2022-09-14T21:17:57;99131.75;;;23.62;61.83
37390;BME280;39679;49.000;8.390;2022-09-14T21:22:57;99134.53;;;23.60;62.56
37390;BME280;39679;49.000;8.390;2022-09-14T21:27:58;99137.31;;;23.59;62.37
37390;BME280;39679;49.000;8.390;2022-09-14T21:32:58;99133.88;;;23.57;62.47
37390;BME280;39679;49.000;8.390;2022-09-14T21:37:58;99146.47;;;23.55;62.48
37390;BME280;39679;49.000;8.390;2022-09-14T21:42:58;99132.34;;;23.53;62.86
37390;BME280;39679;49.000;8.390;2022-09-14T21:47:59;99130.59;;;23.52;62.44
37390;BME280;39679;49.000;8.390;2022-09-14T21:52:59;99110.25;;;23.49;62.46
37390;BME280;39679;49.000;8.390;2022-09-14T21:57:59;99115.59;;;23.49;62.93
37390;BME280;39679;49.000;8.390;2022-09-14T22:02:59;99121.06;;;23.48;63.04
37390;BME280;39679;49.000;8.390;2022-09-14T22:07:59;99120.19;;;23.47;62.88
37390;BME280;39679;49.000;8.390;2022-09-14T22:13:00;99115.81;;;23.46;63.07
37390;BME280;39679;49.000;8.390;2022-09-14T22:18:00;99119.31;;;23.47;63.00
37390;BME280;39679;49.000;8.390;2022-09-14T22:23:00;99121.16;;;23.46;62.59
37390;BME280;39679;49.000;8.390;2022-09-14T22:28:00;99139.94;;;23.45;62.77
37390;BME280;39679;49.000;8.390;2022-09-14T22:33:00;99153.41;;;23.43;63.39
37390;BME280;39679;49.000;8.390;2022-09-14T22:38:01;99154.56;;;23.39;62.98
37390;BME280;39679;49.000;8.390;2022-09-14T22:43:01;99168.03;;;23.38;63.14
37390;BME280;39679;49.000;8.390;2022-09-14T22:48:01;99177.22;;;23.34;63.65
37390;BME280;39679;49.000;8.390;2022-09-14T22:53:01;99171.22;;;23.29;63.72
37390;BME280;39679;49.000;8.390;2022-09-14T22:58:01;99178.59;;;23.25;63.57
37390;BME280;39679;49.000;8.390;2022-09-14T23:03:02;99174.38;;;23.21;63.75
37390;BME280;39679;49.000;8.390;2022-09-14T23:08:03;99176.47;;;23.16;64.09
37390;BME280;39679;49.000;8.390;2022-09-14T23:13:03;99174.84;;;23.14;64.18
37390;BME280;39679;49.000;8.390;2022-09-14T23:18:04;99164.34;;;23.11;64.27
37390;BME280;39679;49.000;8.390;2022-09-14T23:23:04;99163.56;;;23.09;63.91
37390;BME280;39679;49.000;8.390;2022-09-14T23:28:05;99168.25;;;23.05;63.99
37390;BME280;39679;49.000;8.390;2022-09-14T23:33:05;99166.81;;;23.00;63.99
37390;BME280;39679;49.000;8.390;2022-09-14T23:38:05;99167.75;;;22.99;63.55
37390;BME280;39679;49.000;8.390;2022-09-14T23:43:05;99172.22;;;22.98;63.40
37390;BME280;39679;49.000;8.390;2022-09-14T23:48:06;99156.41;;;22.95;63.54
37390;BME280;39679;49.000;8.390;2022-09-14T23:53:06;99157.53;;;22.91;62.99
37390;BME280;39679;49.000;8.390;2022-09-14T23:58:06;99155.81;;;22.90;63.02
